sensor_id;sensor_type;location;lat;lon;timestamp;temperature;humidity
12948;DHT22;6539;49.476;8.484;2022-11-04T00:00:44;12.80;99.90
12948;DHT22;6539;49.476;8.484;2022-11-04T00:03:10;12.60;99.90
12948;DHT22;6539;49.476;8.484;2022-11-04T00:05:35;12.60;99.90
12948;DHT22;6539;49.476;8.484;2022-11-04T00:10:55;13.00;99.90
12948;DHT22;6539;49.476;8.484;2022-11-04T00:16:10;13.20;99.90
12948;DHT22;6539;49.476;8.484;2022-11-04T00:18:55;12.70;99.90
12948;DHT22;6539;49.476;8.484;2022-11-04T00:24:07;12.90;99.90
12948;DHT22;6539;49.476;8.484;2022-11-04T00:29:38;12.80;99.90
12948;DHT22;6539;49.476;8.484;2022-11-04T00:34:52;12.60;99.90
12948;DHT22;6539;49.476;8.484;2022-11-04T00:37:20;13.00;99.90
12948;DHT22;6539;49.476;8.484;2022-11-04T00:39:46;12.80;99.90
12948;DHT22;6539;49.476;8.484;2022-11-04T00:42:12;12.90;99.90
12948;DHT22;6539;49.476;8.484;2022-11-04T00:44:40;12.70;99.90
12948;DHT22;6539;49.476;8.484;2022-11-04T00:47:08;12.50;99.90
12948;DHT22;6539;49.476;8.484;2022-11-04T00:49:37;12.70;99.90
12948;DHT22;6539;49.476;8.484;2022-11-04T00:52:05;12.90;99.90
12948;DHT22;6539;49.476;8.484;2022-11-04T00:54:33;13.00;99.90
12948;DHT22;6539;49.476;8.484;2022-11-04T00:56:59;12.80;99.90
12948;DHT22;6539;49.476;8.484;2022-11-04T00:59:27;12.60;99.90
12948;DHT22;6539;49.476;8.484;2022-11-04T01:04:21;12.40;99.90
12948;DHT22;6539;49.476;8.484;2022-11-04T01:06:49;12.80;99.90
12948;DHT22;6539;49.476;8.484;2022-11-04T01:09:15;12.90;99.90
12948;DHT22;6539;49.476;8.484;2022-11-04T01:14:09;12.50;99.90
12948;DHT22;6539;49.476;8.484;2022-11-04T01:16:40;12.80;99.90
12948;DHT22;6539;49.476;8.484;2022-11-04T01:19:09;12.50;99.90
12948;DHT22;6539;49.476;8.484;2022-11-04T01:24:04;12.90;99.90
12948;DHT22;6539;49.476;8.484;2022-11-04T01:26:30;12.70;99.90
12948;DHT22;6539;49.476;8.484;2022-11-04T01:28:56;12.70;99.90
12948;DHT22;6539;49.476;8.484;2022-11-04T01:31:29;12.80;99.90
12948;DHT22;6539;49.476;8.484;2022-11-04T01:33:58;12.70;99.90
12948;DHT22;6539;49.476;8.484;2022-11-04T01:36:25;12.80;99.90
12948;DHT22;6539;49.476;8.484;2022-11-04T01:38:54;12.60;99.90
12948;DHT22;6539;49.476;8.484;2022-11-04T01:47:15;12.50;99.90
12948;DHT22;6539;49.476;8.484;2022-11-04T01:49:48;12.50;99.90
12948;DHT22;6539;49.476;8.484;2022-11-04T01:52:22;12.70;99.90
12948;DHT22;6539;49.476;8.484;2022-11-04T01:54:59;12.90;99.90
12948;DHT22;6539;49.476;8.484;2022-11-04T01:57:39;12.80;99.90
12948;DHT22;6539;49.476;8.484;2022-11-04T02:00:08;12.50;99.90
12948;DHT22;6539;49.476;8.484;2022-11-04T02:03:07;12.40;99.90
12948;DHT22;6539;49.476;8.484;2022-11-04T02:05:38;12.60;99.90
12948;DHT22;6539;49.476;8.484;2022-11-04T02:08:07;12.60;99.90
12948;DHT22;6539;49.476;8.484;2022-11-04T02:10:34;12.80;99.90
12948;DHT22;6539;49.476;8.484;2022-11-04T02:13:02;12.50;99.90
12948;DHT22;6539;49.476;8.484;2022-11-04T02:15:54;13.00;99.90
12948;DHT22;6539;49.476;8.484;2022-11-04T02:19:04;13.00;99.90
12948;DHT22;6539;49.476;8.484;2022-11-04T02:31:31;13.00;99.90
12948;DHT22;6539;49.476;8.484;2022-11-04T02:34:24;12.90;99.90
12948;DHT22;6539;49.476;8.484;2022-11-04T02:37:08;12.60;99.90
12948;DHT22;6539;49.476;8.484;2022-11-04T02:48:22;12.60;99.90
12948;DHT22;6539;49.476;8.484;2022-11-04T02:51:04;12.70;99.90
12948;DHT22;6539;49.476;8.484;2022-11-04T02:53:46;13.00;99.90
12948;DHT22;6539;49.476;8.484;2022-11-04T02:56:22;12.80;99.90
12948;DHT22;6539;49.476;8.484;2022-11-04T02:59:20;12.50;99.90
12948;DHT22;6539;49.476;8.484;2022-11-04T03:01:52;12.70;99.90
12948;DHT22;6539;49.476;8.484;2022-11-04T03:04:29;12.70;99.90
12948;DHT22;6539;49.476;8.484;2022-11-04T03:07:07;12.80;99.90
12948;DHT22;6539;49.476;8.484;2022-11-04T03:09:38;12.60;99.90
12948;DHT22;6539;49.476;8.484;2022-11-04T03:12:13;12.70;99.90
12948;DHT22;6539;49.476;8.484;2022-11-04T03:14:48;13.20;99.90
12948;DHT22;6539;49.476;8.484;2022-11-04T03:20:07;12.80;99.90
12948;DHT22;6539;49.476;8.484;2022-11-04T03:25:06;12.60;99.90
12948;DHT22;6539;49.476;8.484;2022-11-04T03:30:52;12.50;99.90
12948;DHT22;6539;49.476;8.484;2022-11-04T03:33:49;12.30;99.90
12948;DHT22;6539;49.476;8.484;2022-11-04T03:36:17;12.60;99.90
12948;DHT22;6539;49.476;8.484;2022-11-04T03:38:51;12.60;99.90
12948;DHT22;6539;49.476;8.484;2022-11-04T03:41:35;12.70;99.90
12948;DHT22;6539;49.476;8.484;2022-11-04T03:44:09;12.80;99.90
12948;DHT22;6539;49.476;8.484;2022-11-04T03:46:38;12.50;99.90
12948;DHT22;6539;49.476;8.484;2022-11-04T03:49:05;12.50;99.90
12948;DHT22;6539;49.476;8.484;2022-11-04T03:51:33;12.30;99.90
12948;DHT22;6539;49.476;8.484;2022-11-04T03:54:01;12.60;99.90
12948;DHT22;6539;49.476;8.484;2022-11-04T03:56:58;12.50;99.90
12948;DHT22;6539;49.476;8.484;2022-11-04T04:00:03;12.80;99.90
12948;DHT22;6539;49.476;8.484;2022-11-04T04:06:05;12.80;99.90
12948;DHT22;6539;49.476;8.484;2022-11-04T04:08:52;12.40;99.90
12948;DHT22;6539;49.476;8.484;2022-11-04T04:14:17;12.40;99.90
12948;DHT22;6539;49.476;8.484;2022-11-04T04:17:31;12.30;99.90
12948;DHT22;6539;49.476;8.484;2022-11-04T04:20:18;12.60;99.90
12948;DHT22;6539;49.476;8.484;2022-11-04T04:22:51;12.10;99.90
12948;DHT22;6539;49.476;8.484;2022-11-04T04:25:24;12.20;99.90
12948;DHT22;6539;49.476;8.484;2022-11-04T04:28:16;12.40;99.90
12948;DHT22;6539;49.476;8.484;2022-11-04T04:30:46;12.10;99.90
12948;DHT22;6539;49.476;8.484;2022-11-04T04:33:15;12.50;99.90
12948;DHT22;6539;49.476;8.484;2022-11-04T04:35:46;12.30;99.90
12948;DHT22;6539;49.476;8.484;2022-11-04T04:38:28;11.90;99.90
12948;DHT22;6539;49.476;8.484;2022-11-04T04:41:25;12.50;99.90
12948;DHT22;6539;49.476;8.484;2022-11-04T04:44:20;12.10;99.90
12948;DHT22;6539;49.476;8.484;2022-11-04T04:47:07;12.40;99.90
12948;DHT22;6539;49.476;8.484;2022-11-04T04:49:49;12.40;99.90
12948;DHT22;6539;49.476;8.484;2022-11-04T04:52:15;12.00;99.90
12948;DHT22;6539;49.476;8.484;2022-11-04T04:54:44;12.10;99.90
12948;DHT22;6539;49.476;8.484;2022-11-04T04:57:10;12.40;99.90
12948;DHT22;6539;49.476;8.484;2022-11-04T04:59:36;12.00;99.90
12948;DHT22;6539;49.476;8.484;2022-11-04T05:02:02;11.90;99.90
12948;DHT22;6539;49.476;8.484;2022-11-04T05:04:28;11.90;99.90
12948;DHT22;6539;49.476;8.484;2022-11-04T05:06:59;12.10;99.90
12948;DHT22;6539;49.476;8.484;2022-11-04T05:09:25;11.70;99.90
12948;DHT22;6539;49.476;8.484;2022-11-04T05:11:51;12.30;99.90
12948;DHT22;6539;49.476;8.484;2022-11-04T05:14:16;11.90;99.90
12948;DHT22;6539;49.476;8.484;2022-11-04T05:16:42;11.90;99.90
12948;DHT22;6539;49.476;8.484;2022-11-04T05:19:10;12.10;99.90
12948;DHT22;6539;49.476;8.484;2022-11-04T05:21:38;11.90;99.90
12948;DHT22;6539;49.476;8.484;2022-11-04T05:24:04;11.80;99.90
12948;DHT22;6539;49.476;8.484;2022-11-04T05:26:30;11.80;99.90
12948;DHT22;6539;49.476;8.484;2022-11-04T05:28:56;12.10;99.90
12948;DHT22;6539;49.476;8.484;2022-11-04T05:31:21;12.00;99.90
12948;DHT22;6539;49.476;8.484;2022-11-04T05:33:50;11.90;99.90
12948;DHT22;6539;49.476;8.484;2022-11-04T05:36:23;12.00;99.90
12948;DHT22;6539;49.476;8.484;2022-11-04T05:38:53;12.10;99.90
12948;DHT22;6539;49.476;8.484;2022-11-04T05:41:22;12.00;99.90
12948;DHT22;6539;49.476;8.484;2022-11-04T05:43:54;11.80;99.90
12948;DHT22;6539;49.476;8.484;2022-11-04T05:46:25;11.70;99.90
12948;DHT22;6539;49.476;8.484;2022-11-04T05:48:54;11.70;99.90
12948;DHT22;6539;49.476;8.484;2022-11-04T05:51:24;12.00;99.90
12948;DHT22;6539;49.476;8.484;2022-11-04T05:56:20;12.00;99.90
12948;DHT22;6539;49.476;8.484;2022-11-04T05:58:46;12.20;99.90
12948;DHT22;6539;49.476;8.484;2022-11-04T06:01:33;11.90;99.90
12948;DHT22;6539;49.476;8.484;2022-11-04T06:04:05;11.70;99.90
12948;DHT22;6539;49.476;8.484;2022-11-04T06:06:35;11.80;99.90
12948;DHT22;6539;49.476;8.484;2022-11-04T06:09:04;11.80;99.90
12948;DHT22;6539;49.476;8.484;2022-11-04T06:11:32;12.00;99.90
12948;DHT22;6539;49.476;8.484;2022-11-04T06:14:02;11.60;99.90
12948;DHT22;6539;49.476;8.484;2022-11-04T06:16:28;11.80;99.90
12948;DHT22;6539;49.476;8.484;2022-11-04T06:21:28;11.50;99.90
12948;DHT22;6539;49.476;8.484;2022-11-04T06:23:59;12.40;99.90
12948;DHT22;6539;49.476;8.484;2022-11-04T06:26:29;11.40;99.90
12948;DHT22;6539;49.476;8.484;2022-11-04T06:29:02;11.70;99.90
12948;DHT22;6539;49.476;8.484;2022-11-04T06:31:31;11.50;99.90
12948;DHT22;6539;49.476;8.484;2022-11-04T06:33:59;11.90;99.90
12948;DHT22;6539;49.476;8.484;2022-11-04T06:36:30;12.10;99.90
12948;DHT22;6539;49.476;8.484;2022-11-04T06:39:00;11.70;99.90
12948;DHT22;6539;49.476;8.484;2022-11-04T06:41:28;12.00;99.90
12948;DHT22;6539;49.476;8.484;2022-11-04T06:44:01;12.00;99.90
12948;DHT22;6539;49.476;8.484;2022-11-04T06:46:34;12.20;99.90
12948;DHT22;6539;49.476;8.484;2022-11-04T06:49:04;11.90;99.90
12948;DHT22;6539;49.476;8.484;2022-11-04T06:51:33;11.70;99.90
12948;DHT22;6539;49.476;8.484;2022-11-04T06:54:00;12.10;99.90
12948;DHT22;6539;49.476;8.484;2022-11-04T06:56:26;11.60;99.90
12948;DHT22;6539;49.476;8.484;2022-11-04T06:58:53;11.70;99.90
12948;DHT22;6539;49.476;8.484;2022-11-04T07:01:25;11.50;99.90
12948;DHT22;6539;49.476;8.484;2022-11-04T07:03:57;11.50;99.90
12948;DHT22;6539;49.476;8.484;2022-11-04T07:06:25;11.50;99.90
12948;DHT22;6539;49.476;8.484;2022-11-04T07:09:00;12.00;99.90
12948;DHT22;6539;49.476;8.484;2022-11-04T07:11:31;11.80;99.90
12948;DHT22;6539;49.476;8.484;2022-11-04T07:14:03;11.50;99.90
12948;DHT22;6539;49.476;8.484;2022-11-04T07:16:29;12.00;99.90
12948;DHT22;6539;49.476;8.484;2022-11-04T07:18:54;11.60;99.90
12948;DHT22;6539;49.476;8.484;2022-11-04T07:21:20;11.60;99.90
12948;DHT22;6539;49.476;8.484;2022-11-04T07:23:46;11.60;99.90
12948;DHT22;6539;49.476;8.484;2022-11-04T07:28:41;12.00;99.90
12948;DHT22;6539;49.476;8.484;2022-11-04T07:31:10;11.80;99.90
12948;DHT22;6539;49.476;8.484;2022-11-04T07:33:42;12.00;99.90
12948;DHT22;6539;49.476;8.484;2022-11-04T07:36:11;11.80;99.90
12948;DHT22;6539;49.476;8.484;2022-11-04T07:38:37;11.60;99.90
12948;DHT22;6539;49.476;8.484;2022-11-04T07:41:03;11.70;99.90
12948;DHT22;6539;49.476;8.484;2022-11-04T07:43:29;11.90;99.90
12948;DHT22;6539;49.476;8.484;2022-11-04T07:48:31;12.00;99.90
12948;DHT22;6539;49.476;8.484;2022-11-04T07:50:58;11.70;99.90
12948;DHT22;6539;49.476;8.484;2022-11-04T07:53:31;11.70;99.90
12948;DHT22;6539;49.476;8.484;2022-11-04T07:55:58;11.70;99.90
12948;DHT22;6539;49.476;8.484;2022-11-04T07:58:28;11.50;99.90
12948;DHT22;6539;49.476;8.484;2022-11-04T08:01:02;11.70;99.90
12948;DHT22;6539;49.476;8.484;2022-11-04T08:03:34;11.80;99.90
12948;DHT22;6539;49.476;8.484;2022-11-04T08:06:03;11.80;99.90
12948;DHT22;6539;49.476;8.484;2022-11-04T08:08:30;11.60;99.90
12948;DHT22;6539;49.476;8.484;2022-11-04T08:10:59;12.00;99.90
12948;DHT22;6539;49.476;8.484;2022-11-04T08:13:33;12.00;99.90
12948;DHT22;6539;49.476;8.484;2022-11-04T08:16:06;12.20;99.90
12948;DHT22;6539;49.476;8.484;2022-11-04T08:18:38;12.30;99.90
12948;DHT22;6539;49.476;8.484;2022-11-04T08:21:06;12.50;99.90
12948;DHT22;6539;49.476;8.484;2022-11-04T08:26:00;12.30;99.90
12948;DHT22;6539;49.476;8.484;2022-11-04T08:28:31;12.30;99.90
12948;DHT22;6539;49.476;8.484;2022-11-04T08:31:02;12.10;99.90
12948;DHT22;6539;49.476;8.484;2022-11-04T08:33:44;12.20;99.90
12948;DHT22;6539;49.476;8.484;2022-11-04T08:36:19;12.10;99.90
12948;DHT22;6539;49.476;8.484;2022-11-04T08:38:54;12.70;99.90
12948;DHT22;6539;49.476;8.484;2022-11-04T08:41:26;12.50;99.90
12948;DHT22;6539;49.476;8.484;2022-11-04T08:43:56;12.40;99.90
12948;DHT22;6539;49.476;8.484;2022-11-04T08:46:27;12.30;99.90
12948;DHT22;6539;49.476;8.484;2022-11-04T08:48:55;12.30;99.90
12948;DHT22;6539;49.476;8.484;2022-11-04T08:51:25;12.10;99.90
12948;DHT22;6539;49.476;8.484;2022-11-04T08:53:52;12.70;99.90
12948;DHT22;6539;49.476;8.484;2022-11-04T08:56:27;12.30;99.90
12948;DHT22;6539;49.476;8.484;2022-11-04T08:58:57;12.40;99.90
12948;DHT22;6539;49.476;8.484;2022-11-04T09:01:27;12.60;99.90
12948;DHT22;6539;49.476;8.484;2022-11-04T09:04:01;12.90;99.90
12948;DHT22;6539;49.476;8.484;2022-11-04T09:06:31;13.10;99.90
12948;DHT22;6539;49.476;8.484;2022-11-04T09:08:59;13.10;99.90
12948;DHT22;6539;49.476;8.484;2022-11-04T09:11:30;13.10;99.90
12948;DHT22;6539;49.476;8.484;2022-11-04T09:14:01;13.30;99.90
12948;DHT22;6539;49.476;8.484;2022-11-04T09:16:31;13.40;99.90
12948;DHT22;6539;49.476;8.484;2022-11-04T09:18:58;13.00;99.90
12948;DHT22;6539;49.476;8.484;2022-11-04T09:21:25;13.30;99.90
12948;DHT22;6539;49.476;8.484;2022-11-04T09:23:52;13.80;99.90
12948;DHT22;6539;49.476;8.484;2022-11-04T09:26:19;13.80;99.90
12948;DHT22;6539;49.476;8.484;2022-11-04T09:28:47;13.60;99.90
12948;DHT22;6539;49.476;8.484;2022-11-04T09:31:15;13.80;99.90
12948;DHT22;6539;49.476;8.484;2022-11-04T09:33:45;13.50;99.90
12948;DHT22;6539;49.476;8.484;2022-11-04T09:36:14;13.60;99.90
12948;DHT22;6539;49.476;8.484;2022-11-04T09:38:41;13.70;99.90
12948;DHT22;6539;49.476;8.484;2022-11-04T09:47:16;13.80;99.90
12948;DHT22;6539;49.476;8.484;2022-11-04T09:49:48;13.50;99.90
12948;DHT22;6539;49.476;8.484;2022-11-04T09:52:32;13.70;99.90
12948;DHT22;6539;49.476;8.484;2022-11-04T09:55:14;13.60;99.90
12948;DHT22;6539;49.476;8.484;2022-11-04T09:57:57;13.60;99.90
12948;DHT22;6539;49.476;8.484;2022-11-04T10:00:29;13.70;99.90
12948;DHT22;6539;49.476;8.484;2022-11-04T10:21:34;13.00;99.90
12948;DHT22;6539;49.476;8.484;2022-11-04T10:26:59;13.10;99.90
12948;DHT22;6539;49.476;8.484;2022-11-04T10:29:34;13.20;99.90
12948;DHT22;6539;49.476;8.484;2022-11-04T10:32:23;13.20;99.90
12948;DHT22;6539;49.476;8.484;2022-11-04T10:35:15;12.90;99.90
12948;DHT22;6539;49.476;8.484;2022-11-04T10:37:47;13.10;99.90
12948;DHT22;6539;49.476;8.484;2022-11-04T10:40:19;13.50;99.90
12948;DHT22;6539;49.476;8.484;2022-11-04T10:43:09;13.50;99.90
12948;DHT22;6539;49.476;8.484;2022-11-04T10:51:32;13.30;99.90
12948;DHT22;6539;49.476;8.484;2022-11-04T10:53:59;13.30;99.90
12948;DHT22;6539;49.476;8.484;2022-11-04T10:59:25;13.80;99.90
12948;DHT22;6539;49.476;8.484;2022-11-04T11:02:00;14.00;99.90
12948;DHT22;6539;49.476;8.484;2022-11-04T11:04:35;14.10;99.90
12948;DHT22;6539;49.476;8.484;2022-11-04T11:07:09;13.80;99.90
12948;DHT22;6539;49.476;8.484;2022-11-04T11:14:40;13.70;99.90
12948;DHT22;6539;49.476;8.484;2022-11-04T11:17:36;13.70;99.90
12948;DHT22;6539;49.476;8.484;2022-11-04T11:20:21;14.20;99.90
12948;DHT22;6539;49.476;8.484;2022-11-04T11:22:51;14.20;99.90
12948;DHT22;6539;49.476;8.484;2022-11-04T11:25:24;14.30;99.90
12948;DHT22;6539;49.476;8.484;2022-11-04T11:28:01;14.20;99.90
12948;DHT22;6539;49.476;8.484;2022-11-04T11:33:19;14.10;99.90
12948;DHT22;6539;49.476;8.484;2022-11-04T11:35:59;14.30;99.90
12948;DHT22;6539;49.476;8.484;2022-11-04T11:38:31;14.40;99.90
12948;DHT22;6539;49.476;8.484;2022-11-04T11:43:44;14.00;99.90
12948;DHT22;6539;49.476;8.484;2022-11-04T11:46:23;14.30;99.90
12948;DHT22;6539;49.476;8.484;2022-11-04T11:48:56;13.80;99.90
12948;DHT22;6539;49.476;8.484;2022-11-04T11:51:28;13.60;99.90
12948;DHT22;6539;49.476;8.484;2022-11-04T11:56:47;13.90;99.90
12948;DHT22;6539;49.476;8.484;2022-11-04T11:59:53;13.50;99.90
12948;DHT22;6539;49.476;8.484;2022-11-04T12:02:44;13.50;99.90
12948;DHT22;6539;49.476;8.484;2022-11-04T12:05:28;13.50;99.90
12948;DHT22;6539;49.476;8.484;2022-11-04T12:08:26;13.90;99.90
12948;DHT22;6539;49.476;8.484;2022-11-04T12:11:08;13.40;99.90
12948;DHT22;6539;49.476;8.484;2022-11-04T12:13:59;13.90;99.90
12948;DHT22;6539;49.476;8.484;2022-11-04T12:19:45;14.30;99.90
12948;DHT22;6539;49.476;8.484;2022-11-04T12:22:42;14.50;99.90
12948;DHT22;6539;49.476;8.484;2022-11-04T12:40:10;14.10;99.90
12948;DHT22;6539;49.476;8.484;2022-11-04T12:42:58;14.30;99.90
12948;DHT22;6539;49.476;8.484;2022-11-04T12:45:51;14.30;99.90
12948;DHT22;6539;49.476;8.484;2022-11-04T13:02:48;14.40;99.90
12948;DHT22;6539;49.476;8.484;2022-11-04T13:08:30;14.30;99.90
12948;DHT22;6539;49.476;8.484;2022-11-04T13:14:09;14.50;99.90
12948;DHT22;6539;49.476;8.484;2022-11-04T13:16:47;14.50;99.90
12948;DHT22;6539;49.476;8.484;2022-11-04T13:19:31;14.50;99.90
12948;DHT22;6539;49.476;8.484;2022-11-04T13:22:06;14.50;99.90
12948;DHT22;6539;49.476;8.484;2022-11-04T13:24:44;14.50;99.90
12948;DHT22;6539;49.476;8.484;2022-11-04T13:27:28;14.90;99.90
12948;DHT22;6539;49.476;8.484;2022-11-04T13:36:06;14.80;99.90
12948;DHT22;6539;49.476;8.484;2022-11-04T13:44:46;14.60;99.90
12948;DHT22;6539;49.476;8.484;2022-11-04T13:47:28;14.60;99.90
12948;DHT22;6539;49.476;8.484;2022-11-04T13:50:37;14.10;99.90
12948;DHT22;6539;49.476;8.484;2022-11-04T13:53:07;14.30;99.90
12948;DHT22;6539;49.476;8.484;2022-11-04T13:55:49;14.20;99.90
12948;DHT22;6539;49.476;8.484;2022-11-04T13:58:20;14.60;99.90
12948;DHT22;6539;49.476;8.484;2022-11-04T14:12:30;14.30;99.90
12948;DHT22;6539;49.476;8.484;2022-11-04T14:15:10;14.10;99.90
12948;DHT22;6539;49.476;8.484;2022-11-04T14:20:28;13.90;99.90
12948;DHT22;6539;49.476;8.484;2022-11-04T14:22:57;14.30;99.90
12948;DHT22;6539;49.476;8.484;2022-11-04T14:25:41;14.70;99.90
12948;DHT22;6539;49.476;8.484;2022-11-04T14:28:27;14.20;99.90
12948;DHT22;6539;49.476;8.484;2022-11-04T14:31:02;14.10;99.90
12948;DHT22;6539;49.476;8.484;2022-11-04T14:33:49;14.10;99.90
12948;DHT22;6539;49.476;8.484;2022-11-04T14:44:36;14.00;99.90
12948;DHT22;6539;49.476;8.484;2022-11-04T14:47:23;14.00;99.90
12948;DHT22;6539;49.476;8.484;2022-11-04T14:52:32;14.30;99.90
12948;DHT22;6539;49.476;8.484;2022-11-04T14:57:51;13.80;99.90
12948;DHT22;6539;49.476;8.484;2022-11-04T15:05:57;13.80;99.90
12948;DHT22;6539;49.476;8.484;2022-11-04T15:08:36;13.70;99.90
12948;DHT22;6539;49.476;8.484;2022-11-04T15:11:10;14.00;99.90
12948;DHT22;6539;49.476;8.484;2022-11-04T15:14:24;13.80;99.90
12948;DHT22;6539;49.476;8.484;2022-11-04T15:16:55;13.80;99.90
12948;DHT22;6539;49.476;8.484;2022-11-04T15:19:32;13.60;99.90
12948;DHT22;6539;49.476;8.484;2022-11-04T15:22:02;13.70;99.90
12948;DHT22;6539;49.476;8.484;2022-11-04T15:24:31;13.70;99.90
12948;DHT22;6539;49.476;8.484;2022-11-04T15:27:05;13.70;99.90
12948;DHT22;6539;49.476;8.484;2022-11-04T15:29:31;13.50;99.90
12948;DHT22;6539;49.476;8.484;2022-11-04T15:32:00;13.80;99.90
12948;DHT22;6539;49.476;8.484;2022-11-04T15:34:30;13.40;99.90
12948;DHT22;6539;49.476;8.484;2022-11-04T15:37:00;13.90;99.90
12948;DHT22;6539;49.476;8.484;2022-11-04T15:39:36;13.70;99.90
12948;DHT22;6539;49.476;8.484;2022-11-04T15:42:15;13.60;99.90
12948;DHT22;6539;49.476;8.484;2022-11-04T15:51:03;13.50;99.90
12948;DHT22;6539;49.476;8.484;2022-11-04T15:53:48;13.60;99.90
12948;DHT22;6539;49.476;8.484;2022-11-04T15:56:29;13.50;99.90
12948;DHT22;6539;49.476;8.484;2022-11-04T15:59:00;13.70;99.90
12948;DHT22;6539;49.476;8.484;2022-11-04T16:01:48;13.60;99.90
12948;DHT22;6539;49.476;8.484;2022-11-04T16:04:17;13.40;99.90
12948;DHT22;6539;49.476;8.484;2022-11-04T16:07:03;13.50;99.90
12948;DHT22;6539;49.476;8.484;2022-11-04T16:09:47;13.10;99.90
12948;DHT22;6539;49.476;8.484;2022-11-04T16:12:24;13.40;99.90
12948;DHT22;6539;49.476;8.484;2022-11-04T16:14:56;13.10;99.90
12948;DHT22;6539;49.476;8.484;2022-11-04T16:17:27;13.20;99.90
12948;DHT22;6539;49.476;8.484;2022-11-04T16:19:59;13.30;99.90
12948;DHT22;6539;49.476;8.484;2022-11-04T16:22:35;13.20;99.90
12948;DHT22;6539;49.476;8.484;2022-11-04T16:25:19;13.10;99.90
12948;DHT22;6539;49.476;8.484;2022-11-04T16:27:47;13.00;99.90
12948;DHT22;6539;49.476;8.484;2022-11-04T16:30:18;13.10;99.90
12948;DHT22;6539;49.476;8.484;2022-11-04T16:32:53;13.00;99.90
12948;DHT22;6539;49.476;8.484;2022-11-04T16:35:35;12.90;99.90
12948;DHT22;6539;49.476;8.484;2022-11-04T16:38:06;13.20;99.90
12948;DHT22;6539;49.476;8.484;2022-11-04T16:40:37;13.30;99.90
12948;DHT22;6539;49.476;8.484;2022-11-04T16:43:03;13.00;99.90
12948;DHT22;6539;49.476;8.484;2022-11-04T16:45:34;13.40;99.90
12948;DHT22;6539;49.476;8.484;2022-11-04T16:50:39;13.00;99.90
12948;DHT22;6539;49.476;8.484;2022-11-04T16:53:07;13.20;99.90
12948;DHT22;6539;49.476;8.484;2022-11-04T16:55:39;13.30;99.90
12948;DHT22;6539;49.476;8.484;2022-11-04T16:58:21;13.50;99.90
12948;DHT22;6539;49.476;8.484;2022-11-04T17:00:47;13.20;99.90
12948;DHT22;6539;49.476;8.484;2022-11-04T17:03:18;13.10;99.90
12948;DHT22;6539;49.476;8.484;2022-11-04T17:05:51;13.10;99.90
12948;DHT22;6539;49.476;8.484;2022-11-04T17:08:27;13.30;99.90
12948;DHT22;6539;49.476;8.484;2022-11-04T17:10:53;13.10;99.90
12948;DHT22;6539;49.476;8.484;2022-11-04T17:13:23;13.00;99.90
12948;DHT22;6539;49.476;8.484;2022-11-04T17:15:49;13.30;99.90
12948;DHT22;6539;49.476;8.484;2022-11-04T17:18:19;13.30;99.90
12948;DHT22;6539;49.476;8.484;2022-11-04T17:20:50;13.40;99.90
12948;DHT22;6539;49.476;8.484;2022-11-04T17:23:18;13.20;99.90
12948;DHT22;6539;49.476;8.484;2022-11-04T17:25:47;13.20;99.90
12948;DHT22;6539;49.476;8.484;2022-11-04T17:28:14;13.00;99.90
12948;DHT22;6539;49.476;8.484;2022-11-04T17:30:43;13.10;99.90
12948;DHT22;6539;49.476;8.484;2022-11-04T17:33:14;12.90;99.90
12948;DHT22;6539;49.476;8.484;2022-11-04T17:35:41;12.90;99.90
12948;DHT22;6539;49.476;8.484;2022-11-04T17:38:12;13.20;99.90
12948;DHT22;6539;49.476;8.484;2022-11-04T17:40:39;13.20;99.90
12948;DHT22;6539;49.476;8.484;2022-11-04T17:43:27;13.50;99.90
12948;DHT22;6539;49.476;8.484;2022-11-04T17:46:12;13.30;99.90
12948;DHT22;6539;49.476;8.484;2022-11-04T17:48:57;13.40;99.90
12948;DHT22;6539;49.476;8.484;2022-11-04T17:51:23;13.50;99.90
12948;DHT22;6539;49.476;8.484;2022-11-04T17:53:51;13.10;99.90
12948;DHT22;6539;49.476;8.484;2022-11-04T17:56:21;13.20;99.90
12948;DHT22;6539;49.476;8.484;2022-11-04T17:58:48;13.20;99.90
12948;DHT22;6539;49.476;8.484;2022-11-04T18:01:16;12.90;99.90
12948;DHT22;6539;49.476;8.484;2022-11-04T18:03:44;13.20;99.90
12948;DHT22;6539;49.476;8.484;2022-11-04T18:06:10;13.30;99.90
12948;DHT22;6539;49.476;8.484;2022-11-04T18:08:36;13.00;99.90
12948;DHT22;6539;49.476;8.484;2022-11-04T18:11:05;13.00;99.90
12948;DHT22;6539;49.476;8.484;2022-11-04T18:13:34;13.30;99.90
12948;DHT22;6539;49.476;8.484;2022-11-04T18:16:13;13.10;99.90
12948;DHT22;6539;49.476;8.484;2022-11-04T18:18:40;13.10;99.90
12948;DHT22;6539;49.476;8.484;2022-11-04T18:21:07;12.80;99.90
12948;DHT22;6539;49.476;8.484;2022-11-04T18:23:35;12.70;99.90
12948;DHT22;6539;49.476;8.484;2022-11-04T18:26:01;12.80;99.90
12948;DHT22;6539;49.476;8.484;2022-11-04T18:28:28;12.70;99.90
12948;DHT22;6539;49.476;8.484;2022-11-04T18:30:57;13.20;99.90
12948;DHT22;6539;49.476;8.484;2022-11-04T18:33:22;13.20;99.90
12948;DHT22;6539;49.476;8.484;2022-11-04T18:35:48;12.60;99.90
12948;DHT22;6539;49.476;8.484;2022-11-04T18:38:14;12.90;99.90
12948;DHT22;6539;49.476;8.484;2022-11-04T18:40:42;12.70;99.90
12948;DHT22;6539;49.476;8.484;2022-11-04T18:43:10;12.80;99.90
12948;DHT22;6539;49.476;8.484;2022-11-04T18:45:38;13.10;99.90
12948;DHT22;6539;49.476;8.484;2022-11-04T18:48:07;12.80;99.90
12948;DHT22;6539;49.476;8.484;2022-11-04T18:50:33;13.00;99.90
12948;DHT22;6539;49.476;8.484;2022-11-04T18:53:03;12.90;99.90
12948;DHT22;6539;49.476;8.484;2022-11-04T18:55:31;12.60;99.90
12948;DHT22;6539;49.476;8.484;2022-11-04T18:57:57;12.60;99.90
12948;DHT22;6539;49.476;8.484;2022-11-04T19:00:25;12.80;99.90
12948;DHT22;6539;49.476;8.484;2022-11-04T19:02:51;12.90;99.90
12948;DHT22;6539;49.476;8.484;2022-11-04T19:05:17;12.80;99.90
12948;DHT22;6539;49.476;8.484;2022-11-04T19:07:43;13.00;99.90
12948;DHT22;6539;49.476;8.484;2022-11-04T19:10:09;12.90;99.90
12948;DHT22;6539;49.476;8.484;2022-11-04T19:12:37;13.10;99.90
12948;DHT22;6539;49.476;8.484;2022-11-04T19:15:23;13.00;99.90
12948;DHT22;6539;49.476;8.484;2022-11-04T19:17:51;12.80;99.90
12948;DHT22;6539;49.476;8.484;2022-11-04T19:20:17;12.40;99.90
12948;DHT22;6539;49.476;8.484;2022-11-04T19:22:43;12.60;99.90
12948;DHT22;6539;49.476;8.484;2022-11-04T19:25:09;12.60;99.90
12948;DHT22;6539;49.476;8.484;2022-11-04T19:27:45;12.70;99.90
12948;DHT22;6539;49.476;8.484;2022-11-04T19:32:46;12.70;99.90
12948;DHT22;6539;49.476;8.484;2022-11-04T19:35:11;12.70;99.90
12948;DHT22;6539;49.476;8.484;2022-11-04T19:37:39;12.80;99.90
12948;DHT22;6539;49.476;8.484;2022-11-04T19:40:10;12.60;99.90
12948;DHT22;6539;49.476;8.484;2022-11-04T19:42:36;12.70;99.90
12948;DHT22;6539;49.476;8.484;2022-11-04T19:45:23;12.60;99.90
12948;DHT22;6539;49.476;8.484;2022-11-04T19:47:51;12.80;99.90
12948;DHT22;6539;49.476;8.484;2022-11-04T19:50:19;12.60;99.90
12948;DHT22;6539;49.476;8.484;2022-11-04T19:52:49;12.50;99.90
12948;DHT22;6539;49.476;8.484;2022-11-04T19:55:17;12.70;99.90
12948;DHT22;6539;49.476;8.484;2022-11-04T19:57:44;12.60;99.90
12948;DHT22;6539;49.476;8.484;2022-11-04T20:00:12;12.90;99.90